sensor_id;sensor_type;location;lat;lon;timestamp;pressure;altitude;pressure_sealevel;temperature;humidity
48200;BME280;33990;44.602;10.976;2023-12-20T00:00:37;101199.00;;;20.38;38.50
48200;BME280;33990;44.602;10.976;2023-12-20T00:03:05;101194.50;;;20.38;38.59
48200;BME280;33990;44.602;10.976;2023-12-20T00:05:32;101193.75;;;20.36;38.42
48200;BME280;33990;44.602;10.976;2023-12-20T00:08:00;101188.50;;;20.35;38.45
48200;BME280;33990;44.602;10.976;2023-12-20T00:10:28;101188.75;;;20.32;38.61
48200;BME280;33990;44.602;10.976;2023-12-20T00:12:55;101189.88;;;20.29;38.91
48200;BME280;33990;44.602;10.976;2023-12-20T00:15:23;101182.94;;;20.27;39.20
48200;BME280;33990;44.602;10.976;2023-12-20T00:17:50;101179.63;;;20.23;39.04
48200;BME280;33990;44.602;10.976;2023-12-20T00:20:18;101177.94;;;20.22;39.00
48200;BME280;33990;44.602;10.976;2023-12-20T00:22:45;101173.81;;;20.18;38.89
48200;BME280;33990;44.602;10.976;2023-12-20T00:25:13;101176.59;;;20.16;38.69
48200;BME280;33990;44.602;10.976;2023-12-20T00:27:41;101179.44;;;20.15;38.72
48200;BME280;33990;44.602;10.976;2023-12-20T00:30:09;101162.56;;;20.13;38.66
48200;BME280;33990;44.602;10.976;2023-12-20T00:32:37;101169.91;;;20.11;38.59
48200;BME280;33990;44.602;10.976;2023-12-20T00:35:05;101158.44;;;20.09;38.60
48200;BME280;33990;44.602;10.976;2023-12-20T00:37:32;101154.91;;;20.08;38.46
48200;BME280;33990;44.602;10.976;2023-12-20T00:40:00;101146.13;;;20.06;38.47
48200;BME280;33990;44.602;10.976;2023-12-20T00:42:28;101134.63;;;20.04;38.58
48200;BME280;33990;44.602;10.976;2023-12-20T00:44:55;101142.84;;;20.03;38.60
48200;BME280;33990;44.602;10.976;2023-12-20T00:47:22;101137.31;;;20.04;38.56
48200;BME280;33990;44.602;10.976;2023-12-20T00:49:50;101128.56;;;20.02;38.52
48200;BME280;33990;44.602;10.976;2023-12-20T00:52:17;101124.13;;;20.01;38.70
48200;BME280;33990;44.602;10.976;2023-12-20T00:54:45;101116.06;;;20.01;38.59
48200;BME280;33990;44.602;10.976;2023-12-20T00:57:13;101115.38;;;19.99;38.70
48200;BME280;33990;44.602;10.976;2023-12-20T00:59:40;101113.66;;;19.98;38.66
48200;BME280;33990;44.602;10.976;2023-12-20T01:02:07;101109.13;;;19.98;38.66
48200;BME280;33990;44.602;10.976;2023-12-20T01:04:36;101098.50;;;19.97;38.48
48200;BME280;33990;44.602;10.976;2023-12-20T01:07:03;101100.34;;;19.96;38.62
48200;BME280;33990;44.602;10.976;2023-12-20T01:09:31;101091.44;;;19.96;38.44
48200;BME280;33990;44.602;10.976;2023-12-20T01:11:58;101100.47;;;19.95;38.60
48200;BME280;33990;44.602;10.976;2023-12-20T01:14:25;101087.19;;;19.93;38.45
48200;BME280;33990;44.602;10.976;2023-12-20T01:16:53;101087.19;;;19.93;38.64
48200;BME280;33990;44.602;10.976;2023-12-20T01:19:20;101091.69;;;19.93;38.67
48200;BME280;33990;44.602;10.976;2023-12-20T01:21:48;101083.63;;;19.93;38.51
48200;BME280;33990;44.602;10.976;2023-12-20T01:24:15;101080.09;;;19.92;38.62
48200;BME280;33990;44.602;10.976;2023-12-20T01:26:43;101074.72;;;19.92;38.67
48200;BME280;33990;44.602;10.976;2023-12-20T01:29:10;101072.16;;;19.91;38.64
48200;BME280;33990;44.602;10.976;2023-12-20T01:31:38;101075.56;;;19.93;38.67
48200;BME280;33990;44.602;10.976;2023-12-20T01:34:05;101067.63;;;19.91;38.59
48200;BME280;33990;44.602;10.976;2023-12-20T01:36:33;101063.25;;;19.90;38.71
48200;BME280;33990;44.602;10.976;2023-12-20T01:39:00;101059.72;;;19.90;38.76
48200;BME280;33990;44.602;10.976;2023-12-20T01:41:29;101058.88;;;19.89;38.89
48200;BME280;33990;44.602;10.976;2023-12-20T01:43:56;101057.16;;;19.88;38.74
48200;BME280;33990;44.602;10.976;2023-12-20T01:46:24;101048.97;;;19.90;38.75
48200;BME280;33990;44.602;10.976;2023-12-20T01:48:51;101047.25;;;19.89;38.94
48200;BME280;33990;44.602;10.976;2023-12-20T01:51:20;101042.84;;;19.88;38.76
48200;BME280;33990;44.602;10.976;2023-12-20T01:53:48;101029.44;;;19.88;38.67
48200;BME280;33990;44.602;10.976;2023-12-20T01:56:16;101036.63;;;19.87;38.59
48200;BME280;33990;44.602;10.976;2023-12-20T01:58:45;101029.56;;;19.86;38.77
48200;BME280;33990;44.602;10.976;2023-12-20T02:01:13;101028.72;;;19.86;38.76
48200;BME280;33990;44.602;10.976;2023-12-20T02:03:41;101027.00;;;19.85;38.64
48200;BME280;33990;44.602;10.976;2023-12-20T02:06:09;101026.88;;;19.86;38.78
48200;BME280;33990;44.602;10.976;2023-12-20T02:08:37;101024.31;;;19.85;38.87
48200;BME280;33990;44.602;10.976;2023-12-20T02:11:04;101018.94;;;19.85;38.62
48200;BME280;33990;44.602;10.976;2023-12-20T02:13:32;101016.25;;;19.85;38.50
48200;BME280;33990;44.602;10.976;2023-12-20T02:16:00;101011.88;;;19.84;38.65
48200;BME280;33990;44.602;10.976;2023-12-20T02:18:27;101008.34;;;19.83;38.70
48200;BME280;33990;44.602;10.976;2023-12-20T02:20:55;101011.88;;;19.84;38.64
48200;BME280;33990;44.602;10.976;2023-12-20T02:23:23;101010.16;;;19.83;38.57
48200;BME280;33990;44.602;10.976;2023-12-20T02:25:50;100991.50;;;19.81;38.46
48200;BME280;33990;44.602;10.976;2023-12-20T02:28:18;100995.16;;;19.80;38.68
48200;BME280;33990;44.602;10.976;2023-12-20T02:30:46;100996.00;;;19.81;38.70
48200;BME280;33990;44.602;10.976;2023-12-20T02:33:14;100983.56;;;19.80;38.56
48200;BME280;33990;44.602;10.976;2023-12-20T02:35:41;100987.09;;;19.80;38.60
48200;BME280;33990;44.602;10.976;2023-12-20T02:38:09;100993.44;;;19.79;38.62
48200;BME280;33990;44.602;10.976;2023-12-20T02:40:36;100992.59;;;19.79;38.58
48200;BME280;33990;44.602;10.976;2023-12-20T02:43:03;100986.38;;;19.78;38.60
48200;BME280;33990;44.602;10.976;2023-12-20T02:45:31;100995.44;;;19.77;38.63
48200;BME280;33990;44.602;10.976;2023-12-20T02:47:58;100988.22;;;19.78;38.71
48200;BME280;33990;44.602;10.976;2023-12-20T02:50:26;100989.06;;;19.78;38.60
48200;BME280;33990;44.602;10.976;2023-12-20T02:52:53;100989.19;;;19.76;38.54
48200;BME280;33990;44.602;10.976;2023-12-20T02:55:20;100980.28;;;19.76;38.64
48200;BME280;33990;44.602;10.976;2023-12-20T02:57:48;100976.75;;;19.75;38.61
48200;BME280;33990;44.602;10.976;2023-12-20T03:00:16;100980.41;;;19.74;38.66
48200;BME280;33990;44.602;10.976;2023-12-20T03:02:43;100990.31;;;19.74;38.70
48200;BME280;33990;44.602;10.976;2023-12-20T03:05:10;100977.88;;;19.73;38.70
48200;BME280;33990;44.602;10.976;2023-12-20T03:07:38;100977.88;;;19.73;38.70
48200;BME280;33990;44.602;10.976;2023-12-20T03:10:05;100974.19;;;19.74;38.76
48200;BME280;33990;44.602;10.976;2023-12-20T03:12:46;100982.38;;;19.72;38.89
48200;BME280;33990;44.602;10.976;2023-12-20T03:15:14;100986.91;;;19.72;38.89
48200;BME280;33990;44.602;10.976;2023-12-20T03:17:41;100988.72;;;19.71;38.82
48200;BME280;33990;44.602;10.976;2023-12-20T03:20:09;100993.13;;;19.72;38.75
48200;BME280;33990;44.602;10.976;2023-12-20T03:22:37;100992.25;;;19.72;38.92
48200;BME280;33990;44.602;10.976;2023-12-20T03:25:04;100991.41;;;19.71;39.07
48200;BME280;33990;44.602;10.976;2023-12-20T03:27:32;100991.56;;;19.70;38.90
48200;BME280;33990;44.602;10.976;2023-12-20T03:30:00;100989.72;;;19.70;38.77
48200;BME280;33990;44.602;10.976;2023-12-20T03:32:27;100987.03;;;19.70;38.98
48200;BME280;33990;44.602;10.976;2023-12-20T03:34:54;100996.94;;;19.70;38.95
48200;BME280;33990;44.602;10.976;2023-12-20T03:37:23;100988.88;;;19.70;38.90
48200;BME280;33990;44.602;10.976;2023-12-20T03:39:50;100992.56;;;19.69;38.72
48200;BME280;33990;44.602;10.976;2023-12-20T03:42:18;100977.41;;;19.68;38.76
48200;BME280;33990;44.602;10.976;2023-12-20T03:44:45;100991.66;;;19.68;38.78
48200;BME280;33990;44.602;10.976;2023-12-20T03:47:12;100980.94;;;19.68;38.92
48200;BME280;33990;44.602;10.976;2023-12-20T03:49:40;100976.53;;;19.67;38.72
48200;BME280;33990;44.602;10.976;2023-12-20T03:52:07;100971.31;;;19.66;38.77
48200;BME280;33990;44.602;10.976;2023-12-20T03:54:35;100962.41;;;19.65;38.70
48200;BME280;33990;44.602;10.976;2023-12-20T03:57:03;100965.94;;;19.66;38.70
48200;BME280;33990;44.602;10.976;2023-12-20T03:59:35;100965.09;;;19.65;38.91
48200;BME280;33990;44.602;10.976;2023-12-20T04:02:03;100950.81;;;19.65;38.88
48200;BME280;33990;44.602;10.976;2023-12-20T04:04:31;100955.31;;;19.64;38.82
48200;BME280;33990;44.602;10.976;2023-12-20T04:06:59;100941.03;;;19.64;38.83
48200;BME280;33990;44.602;10.976;2023-12-20T04:09:26;100932.13;;;19.63;38.63
48200;BME280;33990;44.602;10.976;2023-12-20T04:11:54;100939.19;;;19.64;38.78
48200;BME280;33990;44.602;10.976;2023-12-20T04:14:21;100929.44;;;19.63;38.97
48200;BME280;33990;44.602;10.976;2023-12-20T04:16:48;100924.91;;;19.64;38.97
48200;BME280;33990;44.602;10.976;2023-12-20T04:19:16;100919.56;;;19.64;38.86
48200;BME280;33990;44.602;10.976;2023-12-20T04:21:43;100915.16;;;19.63;38.93
48200;BME280;33990;44.602;10.976;2023-12-20T04:24:11;100914.19;;;19.64;39.06
48200;BME280;33990;44.602;10.976;2023-12-20T04:26:38;100902.72;;;19.62;38.95
48200;BME280;33990;44.602;10.976;2023-12-20T04:29:06;100903.44;;;19.64;38.95
48200;BME280;33990;44.602;10.976;2023-12-20T04:31:33;100888.16;;;19.64;39.03
48200;BME280;33990;44.602;10.976;2023-12-20T04:34:00;100878.16;;;19.66;39.11
48200;BME280;33990;44.602;10.976;2023-12-20T04:36:28;100880.84;;;19.66;39.39
48200;BME280;33990;44.602;10.976;2023-12-20T04:38:57;100878.31;;;19.65;39.37
48200;BME280;33990;44.602;10.976;2023-12-20T04:41:24;100869.38;;;19.64;39.30
48200;BME280;33990;44.602;10.976;2023-12-20T04:43:51;100857.78;;;19.64;39.25
48200;BME280;33990;44.602;10.976;2023-12-20T04:46:19;100857.66;;;19.65;39.24
48200;BME280;33990;44.602;10.976;2023-12-20T04:48:46;100847.78;;;19.66;39.32
48200;BME280;33990;44.602;10.976;2023-12-20T04:51:14;100838.88;;;19.65;39.20
48200;BME280;33990;44.602;10.976;2023-12-20T04:53:41;100839.81;;;19.64;39.33
48200;BME280;33990;44.602;10.976;2023-12-20T04:56:08;100847.88;;;19.64;39.34
48200;BME280;33990;44.602;10.976;2023-12-20T04:58:36;100853.41;;;19.63;39.20
48200;BME280;33990;44.602;10.976;2023-12-20T05:01:05;100858.63;;;19.64;39.10
48200;BME280;33990;44.602;10.976;2023-12-20T05:03:33;100862.03;;;19.66;39.46
48200;BME280;33990;44.602;10.976;2023-12-20T05:06:00;100863.88;;;19.66;39.44
48200;BME280;33990;44.602;10.976;2023-12-20T05:08:28;100863.75;;;19.67;39.28
48200;BME280;33990;44.602;10.976;2023-12-20T05:10:55;100864.00;;;19.64;39.34
48200;BME280;33990;44.602;10.976;2023-12-20T05:13:23;100873.06;;;19.63;39.32
48200;BME280;33990;44.602;10.976;2023-12-20T05:16:04;100875.03;;;19.61;39.09
48200;BME280;33990;44.602;10.976;2023-12-20T05:18:31;100865.22;;;19.60;38.86
48200;BME280;33990;44.602;10.976;2023-12-20T05:20:58;100858.28;;;19.58;38.83
48200;BME280;33990;44.602;10.976;2023-12-20T05:23:26;100861.81;;;19.58;38.98
48200;BME280;33990;44.602;10.976;2023-12-20T05:25:56;100859.16;;;19.58;39.04
48200;BME280;33990;44.602;10.976;2023-12-20T05:28:24;100860.13;;;19.57;39.05
48200;BME280;33990;44.602;10.976;2023-12-20T05:30:53;100860.13;;;19.57;38.99
48200;BME280;33990;44.602;10.976;2023-12-20T05:33:21;100870.00;;;19.57;39.09
48200;BME280;33990;44.602;10.976;2023-12-20T05:35:48;100873.69;;;19.56;39.12
48200;BME280;33990;44.602;10.976;2023-12-20T05:38:16;100874.66;;;19.55;39.07
48200;BME280;33990;44.602;10.976;2023-12-20T05:40:43;100892.47;;;19.56;39.16
48200;BME280;33990;44.602;10.976;2023-12-20T05:43:11;100890.78;;;19.55;38.84
48200;BME280;33990;44.602;10.976;2023-12-20T05:45:38;100892.63;;;19.54;38.92
48200;BME280;33990;44.602;10.976;2023-12-20T05:48:06;100898.97;;;19.53;38.98
48200;BME280;33990;44.602;10.976;2023-12-20T05:50:34;100898.97;;;19.53;38.92
48200;BME280;33990;44.602;10.976;2023-12-20T05:53:02;100881.13;;;19.52;38.99
48200;BME280;33990;44.602;10.976;2023-12-20T05:55:29;100872.13;;;19.53;39.22
48200;BME280;33990;44.602;10.976;2023-12-20T05:57:56;100886.41;;;19.54;39.33
48200;BME280;33990;44.602;10.976;2023-12-20T06:00:24;100891.78;;;19.54;39.38
48200;BME280;33990;44.602;10.976;2023-12-20T06:02:52;100879.31;;;19.52;39.28
48200;BME280;33990;44.602;10.976;2023-12-20T06:05:20;100878.47;;;19.52;39.34
48200;BME280;33990;44.602;10.976;2023-12-20T06:07:47;100893.59;;;19.53;39.28
48200;BME280;33990;44.602;10.976;2023-12-20T06:10:18;100899.94;;;19.52;39.40
48200;BME280;33990;44.602;10.976;2023-12-20T06:12:48;100898.25;;;19.51;39.39
48200;BME280;33990;44.602;10.976;2023-12-20T06:15:17;100895.69;;;19.49;39.23
48200;BME280;33990;44.602;10.976;2023-12-20T06:17:44;100883.13;;;19.50;39.12
48200;BME280;33990;44.602;10.976;2023-12-20T06:20:14;100867.84;;;19.50;39.28
48200;BME280;33990;44.602;10.976;2023-12-20T06:22:42;100864.31;;;19.50;39.28
48200;BME280;33990;44.602;10.976;2023-12-20T06:25:09;100853.59;;;19.50;39.18
48200;BME280;33990;44.602;10.976;2023-12-20T06:27:37;100861.63;;;19.50;39.28
48200;BME280;33990;44.602;10.976;2023-12-20T06:30:05;100866.16;;;19.49;39.38
48200;BME280;33990;44.602;10.976;2023-12-20T06:32:32;100864.44;;;19.48;39.27
48200;BME280;33990;44.602;10.976;2023-12-20T06:35:01;100851.16;;;19.47;39.21
48200;BME280;33990;44.602;10.976;2023-12-20T06:37:29;100848.31;;;19.48;39.12
48200;BME280;33990;44.602;10.976;2023-12-20T06:39:56;100845.66;;;19.48;39.04
48200;BME280;33990;44.602;10.976;2023-12-20T06:42:26;100850.16;;;19.48;39.28
48200;BME280;33990;44.602;10.976;2023-12-20T06:44:56;100855.53;;;19.48;39.42
48200;BME280;33990;44.602;10.976;2023-12-20T06:47:23;100860.06;;;19.47;39.20
48200;BME280;33990;44.602;10.976;2023-12-20T06:49:50;100859.22;;;19.47;39.24
48200;BME280;33990;44.602;10.976;2023-12-20T06:52:18;100868.13;;;19.47;39.23
48200;BME280;33990;44.602;10.976;2023-12-20T06:54:45;100858.22;;;19.48;39.22
48200;BME280;33990;44.602;10.976;2023-12-20T06:57:13;100865.44;;;19.47;39.24
48200;BME280;33990;44.602;10.976;2023-12-20T06:59:40;100866.28;;;19.48;39.40
48200;BME280;33990;44.602;10.976;2023-12-20T07:02:08;100861.91;;;19.47;39.24
48200;BME280;33990;44.602;10.976;2023-12-20T07:04:41;100854.69;;;19.47;39.15
48200;BME280;33990;44.602;10.976;2023-12-20T07:07:09;100854.69;;;19.47;39.30
48200;BME280;33990;44.602;10.976;2023-12-20T07:09:36;100853.00;;;19.46;39.44
48200;BME280;33990;44.602;10.976;2023-12-20T07:12:05;100843.94;;;19.47;39.51
48200;BME280;33990;44.602;10.976;2023-12-20T07:14:33;100843.09;;;19.47;39.49
48200;BME280;33990;44.602;10.976;2023-12-20T07:17:00;100847.63;;;19.46;39.67
48200;BME280;33990;44.602;10.976;2023-12-20T07:19:27;100850.31;;;19.46;39.46
48200;BME280;33990;44.602;10.976;2023-12-20T07:21:55;100843.09;;;19.47;39.46
48200;BME280;33990;44.602;10.976;2023-12-20T07:24:22;100846.78;;;19.46;39.24
48200;BME280;33990;44.602;10.976;2023-12-20T07:26:49;100854.84;;;19.46;39.52
48200;BME280;33990;44.602;10.976;2023-12-20T07:29:18;100855.81;;;19.45;39.47
48200;BME280;33990;44.602;10.976;2023-12-20T07:31:45;100870.09;;;19.45;39.09
48200;BME280;33990;44.602;10.976;2023-12-20T07:34:12;100880.00;;;19.45;38.79
48200;BME280;33990;44.602;10.976;2023-12-20T07:36:40;100878.00;;;19.47;38.87
48200;BME280;33990;44.602;10.976;2023-12-20T07:39:07;100876.75;;;19.51;38.58
48200;BME280;33990;44.602;10.976;2023-12-20T07:41:35;100880.28;;;19.51;39.00
48200;BME280;33990;44.602;10.976;2023-12-20T07:44:04;100866.88;;;19.51;38.91
48200;BME280;33990;44.602;10.976;2023-12-20T07:46:31;100875.06;;;19.50;39.32
48200;BME280;33990;44.602;10.976;2023-12-20T07:48:59;100875.06;;;19.50;39.44
48200;BME280;33990;44.602;10.976;2023-12-20T07:51:26;100884.13;;;19.49;39.59
48200;BME280;33990;44.602;10.976;2023-12-20T07:53:54;100884.81;;;19.51;39.56
48200;BME280;33990;44.602;10.976;2023-12-20T07:56:21;100884.97;;;19.49;39.53
48200;BME280;33990;44.602;10.976;2023-12-20T07:58:48;100895.56;;;19.51;39.66
48200;BME280;33990;44.602;10.976;2023-12-20T08:01:20;100894.56;;;19.52;39.78
48200;BME280;33990;44.602;10.976;2023-12-20T08:03:49;100905.31;;;19.52;39.83
48200;BME280;33990;44.602;10.976;2023-12-20T08:06:17;100904.59;;;19.50;39.62
48200;BME280;33990;44.602;10.976;2023-12-20T08:08:45;100904.59;;;19.50;39.63
48200;BME280;33990;44.602;10.976;2023-12-20T08:11:20;100903.88;;;19.48;39.50
48200;BME280;33990;44.602;10.976;2023-12-20T08:13:48;100921.69;;;19.49;39.63
48200;BME280;33990;44.602;10.976;2023-12-20T08:16:15;100918.13;;;19.48;39.67
48200;BME280;33990;44.602;10.976;2023-12-20T08:18:45;100914.59;;;19.48;39.45
48200;BME280;33990;44.602;10.976;2023-12-20T08:21:13;100909.38;;;19.46;39.60
48200;BME280;33990;44.602;10.976;2023-12-20T08:23:40;100923.66;;;19.47;39.35
48200;BME280;33990;44.602;10.976;2023-12-20T08:26:08;100930.00;;;19.46;39.46
48200;BME280;33990;44.602;10.976;2023-12-20T08:28:36;100934.53;;;19.45;39.28
48200;BME280;33990;44.602;10.976;2023-12-20T08:31:04;100929.16;;;19.45;39.38
48200;BME280;33990;44.602;10.976;2023-12-20T08:33:31;100935.50;;;19.44;39.46
48200;BME280;33990;44.602;10.976;2023-12-20T08:35:59;100936.47;;;19.43;39.37
48200;BME280;33990;44.602;10.976;2023-12-20T08:38:26;100933.78;;;19.43;39.50
48200;BME280;33990;44.602;10.976;2023-12-20T08:40:53;100931.13;;;19.43;39.30
48200;BME280;33990;44.602;10.976;2023-12-20T08:43:21;100910.38;;;19.45;39.50
48200;BME280;33990;44.602;10.976;2023-12-20T08:45:48;100911.22;;;19.46;39.63
48200;BME280;33990;44.602;10.976;2023-12-20T08:48:15;100895.94;;;19.46;39.47
48200;BME280;33990;44.602;10.976;2023-12-20T08:50:43;100897.66;;;19.47;39.86
48200;BME280;33990;44.602;10.976;2023-12-20T08:53:11;100903.75;;;19.49;39.96
48200;BME280;33990;44.602;10.976;2023-12-20T08:55:38;100897.53;;;19.49;39.88
48200;BME280;33990;44.602;10.976;2023-12-20T08:58:06;100905.59;;;19.49;40.00
48200;BME280;33990;44.602;10.976;2023-12-20T09:00:35;100923.41;;;19.50;39.88
48200;BME280;33990;44.602;10.976;2023-12-20T09:03:02;100932.44;;;19.49;39.95
48200;BME280;33990;44.602;10.976;2023-12-20T09:05:30;100928.88;;;19.48;39.32
48200;BME280;33990;44.602;10.976;2023-12-20T09:07:58;100932.56;;;19.47;38.37
48200;BME280;33990;44.602;10.976;2023-12-20T09:10:25;100930.00;;;19.46;37.18
48200;BME280;33990;44.602;10.976;2023-12-20T09:12:53;100920.50;;;19.42;36.52
48200;BME280;33990;44.602;10.976;2023-12-20T09:15:25;100934.19;;;19.39;36.10
48200;BME280;33990;44.602;10.976;2023-12-20T09:17:53;100933.59;;;19.35;35.76
48200;BME280;33990;44.602;10.976;2023-12-20T09:20:21;100929.47;;;19.31;35.58
48200;BME280;33990;44.602;10.976;2023-12-20T09:22:50;100922.66;;;19.27;35.28
48200;BME280;33990;44.602;10.976;2023-12-20T09:25:18;100922.91;;;19.24;35.24
48200;BME280;33990;44.602;10.976;2023-12-20T09:27:45;100939.28;;;19.21;35.12
48200;BME280;33990;44.602;10.976;2023-12-20T09:30:13;100936.72;;;19.19;35.51
48200;BME280;33990;44.602;10.976;2023-12-20T09:32:54;100933.19;;;19.19;36.14
48200;BME280;33990;44.602;10.976;2023-12-20T09:35:22;100947.19;;;19.22;36.81
48200;BME280;33990;44.602;10.976;2023-12-20T09:37:50;100939.16;;;19.22;37.11
48200;BME280;33990;44.602;10.976;2023-12-20T09:40:20;100939.88;;;19.24;37.55
48200;BME280;33990;44.602;10.976;2023-12-20T09:43:03;100932.53;;;19.26;37.75
48200;BME280;33990;44.602;10.976;2023-12-20T09:45:32;100937.06;;;19.26;37.59
48200;BME280;33990;44.602;10.976;2023-12-20T09:48:00;100925.56;;;19.03;36.11
48200;BME280;33990;44.602;10.976;2023-12-20T09:50:30;100912.13;;;18.71;35.79
48200;BME280;33990;44.602;10.976;2023-12-20T09:53:01;100913.81;;;18.61;36.18
48200;BME280;33990;44.602;10.976;2023-12-20T09:55:30;100896.88;;;18.60;36.60
48200;BME280;33990;44.602;10.976;2023-12-20T09:57:59;100899.78;;;18.68;36.84
48200;BME280;33990;44.602;10.976;2023-12-20T10:00:27;100904.66;;;18.74;37.53
48200;BME280;33990;44.602;10.976;2023-12-20T10:02:59;100905.88;;;18.82;38.13
48200;BME280;33990;44.602;10.976;2023-12-20T10:05:31;100881.34;;;18.86;38.01
48200;BME280;33990;44.602;10.976;2023-12-20T10:08:00;100885.41;;;18.81;37.28
48200;BME280;33990;44.602;10.976;2023-12-20T10:10:29;100872.84;;;18.81;37.49
48200;BME280;33990;44.602;10.976;2023-12-20T10:13:12;100873.31;;;18.86;37.79
48200;BME280;33990;44.602;10.976;2023-12-20T10:15:41;100861.47;;;18.89;37.90
48200;BME280;33990;44.602;10.976;2023-12-20T10:18:11;100852.91;;;18.95;38.20
48200;BME280;33990;44.602;10.976;2023-12-20T10:20:40;100846.31;;;18.99;38.34
48200;BME280;33990;44.602;10.976;2023-12-20T10:23:08;100843.38;;;19.02;38.46
48200;BME280;33990;44.602;10.976;2023-12-20T10:25:36;100836.91;;;19.05;38.40
48200;BME280;33990;44.602;10.976;2023-12-20T10:28:13;100831.00;;;19.11;38.61
48200;BME280;33990;44.602;10.976;2023-12-20T10:30:41;100821.97;;;19.12;38.62
48200;BME280;33990;44.602;10.976;2023-12-20T10:33:10;100823.69;;;19.13;38.42
48200;BME280;33990;44.602;10.976;2023-12-20T10:35:39;100819.28;;;19.12;37.92
48200;BME280;33990;44.602;10.976;2023-12-20T10:38:12;100810.38;;;19.11;38.18
48200;BME280;33990;44.602;10.976;2023-12-20T10:40:42;100808.44;;;19.13;38.16
48200;BME280;33990;44.602;10.976;2023-12-20T10:43:11;100802.06;;;19.14;38.30
48200;BME280;33990;44.602;10.976;2023-12-20T10:45:38;100802.06;;;19.14;38.56
48200;BME280;33990;44.602;10.976;2023-12-20T10:48:07;100797.44;;;19.16;38.59
48200;BME280;33990;44.602;10.976;2023-12-20T10:50:36;100800.81;;;19.18;38.71
48200;BME280;33990;44.602;10.976;2023-12-20T10:53:06;100784.72;;;19.18;38.74
48200;BME280;33990;44.602;10.976;2023-12-20T10:55:33;100787.25;;;19.20;38.88
48200;BME280;33990;44.602;10.976;2023-12-20T10:58:08;100790.69;;;19.22;39.27
48200;BME280;33990;44.602;10.976;2023-12-20T11:00:43;100786.16;;;19.22;39.21
48200;BME280;33990;44.602;10.976;2023-12-20T11:03:16;100787.84;;;19.23;39.26
48200;BME280;33990;44.602;10.976;2023-12-20T11:05:51;100785.91;;;19.25;39.27
48200;BME280;33990;44.602;10.976;2023-12-20T11:08:33;100792.38;;;19.23;39.15
48200;BME280;33990;44.602;10.976;2023-12-20T11:11:20;100794.94;;;19.24;39.12
48200;BME280;33990;44.602;10.976;2023-12-20T11:14:00;100786.91;;;19.24;39.08
48200;BME280;33990;44.602;10.976;2023-12-20T11:16:31;100783.22;;;19.25;39.16
48200;BME280;33990;44.602;10.976;2023-12-20T11:19:14;100780.53;;;19.25;39.24
48200;BME280;33990;44.602;10.976;2023-12-20T11:21:42;100775.16;;;19.25;39.34
48200;BME280;33990;44.602;10.976;2023-12-20T11:24:10;100782.22;;;19.26;39.29
48200;BME280;33990;44.602;10.976;2023-12-20T11:26:37;100784.91;;;19.26;39.33
48200;BME280;33990;44.602;10.976;2023-12-20T11:29:30;100776.88;;;19.26;39.31
48200;BME280;33990;44.602;10.976;2023-12-20T11:32:00;100777.72;;;19.27;39.30
48200;BME280;33990;44.602;10.976;2023-12-20T11:34:31;100782.09;;;19.28;39.44
48200;BME280;33990;44.602;10.976;2023-12-20T11:37:00;100773.19;;;19.27;39.35
48200;BME280;33990;44.602;10.976;2023-12-20T11:39:30;100767.81;;;19.27;39.24
48200;BME280;33990;44.602;10.976;2023-12-20T11:42:04;100760.63;;;19.28;39.24
48200;BME280;33990;44.602;10.976;2023-12-20T11:44:33;100750.88;;;19.27;39.30
48200;BME280;33990;44.602;10.976;2023-12-20T11:47:00;100757.94;;;19.28;39.33
48200;BME280;33990;44.602;10.976;2023-12-20T11:49:28;100751.72;;;19.27;39.19
48200;BME280;33990;44.602;10.976;2023-12-20T11:51:57;100746.34;;;19.27;39.41
48200;BME280;33990;44.602;10.976;2023-12-20T11:54:25;100743.66;;;19.27;39.23
48200;BME280;33990;44.602;10.976;2023-12-20T11:56:52;100743.66;;;19.27;39.36
48200;BME280;33990;44.602;10.976;2023-12-20T11:59:20;100740.97;;;19.27;39.42
48200;BME280;33990;44.602;10.976;2023-12-20T12:01:50;100735.63;;;19.27;39.26
48200;BME280;33990;44.602;10.976;2023-12-20T12:04:19;100740.97;;;19.27;39.50
48200;BME280;33990;44.602;10.976;2023-12-20T12:06:47;100743.66;;;19.27;39.29
48200;BME280;33990;44.602;10.976;2023-12-20T12:09:14;100742.81;;;19.27;39.38
48200;BME280;33990;44.602;10.976;2023-12-20T12:11:42;100735.63;;;19.27;39.40
48200;BME280;33990;44.602;10.976;2023-12-20T12:14:10;100739.13;;;19.28;39.26
48200;BME280;33990;44.602;10.976;2023-12-20T12:16:38;100731.09;;;19.28;39.24
48200;BME280;33990;44.602;10.976;2023-12-20T12:19:06;100736.47;;;19.28;39.31
48200;BME280;33990;44.602;10.976;2023-12-20T12:21:33;100738.28;;;19.27;39.44
48200;BME280;33990;44.602;10.976;2023-12-20T12:24:08;100731.97;;;19.29;39.36
48200;BME280;33990;44.602;10.976;2023-12-20T12:26:35;100731.09;;;19.28;39.34
48200;BME280;33990;44.602;10.976;2023-12-20T12:29:03;100734.66;;;19.29;39.49
48200;BME280;33990;44.602;10.976;2023-12-20T12:31:30;100735.63;;;19.27;39.33
48200;BME280;33990;44.602;10.976;2023-12-20T12:33:58;100732.94;;;19.27;39.32
48200;BME280;33990;44.602;10.976;2023-12-20T12:36:25;100730.25;;;19.27;39.34
48200;BME280;33990;44.602;10.976;2023-12-20T12:38:53;100720.34;;;19.28;39.50
48200;BME280;33990;44.602;10.976;2023-12-20T12:41:23;100724.88;;;19.27;39.40
48200;BME280;33990;44.602;10.976;2023-12-20T12:43:50;100716.81;;;19.27;39.44
48200;BME280;33990;44.602;10.976;2023-12-20T12:46:17;100717.66;;;19.28;39.33